createdAt,value
2018-07-09T00:01:11.317Z,24.40
2018-07-09T00:03:41.148Z,24.35
2018-07-09T00:06:09.732Z,24.30
2018-07-09T00:08:38.676Z,24.25
2018-07-09T00:13:42.945Z,24.17
2018-07-09T00:16:11.840Z,24.16
2018-07-09T00:18:40.355Z,24.14
2018-07-09T00:21:08.905Z,24.10
2018-07-09T00:23:37.816Z,24.08
2018-07-09T00:26:06.383Z,24.03
2018-07-09T00:28:34.899Z,23.95
2018-07-09T00:31:04.264Z,23.94
2018-07-09T00:33:32.810Z,23.95
2018-07-09T00:36:01.272Z,23.93
2018-07-09T00:41:09.436Z,23.85
2018-07-09T00:43:38.789Z,23.82
2018-07-09T00:46:07.326Z,23.76
2018-07-09T00:48:35.913Z,23.73
2018-07-09T00:51:04.600Z,23.67
2018-07-09T00:53:38.741Z,23.64
2018-07-09T00:56:07.256Z,23.60
2018-07-09T00:58:35.845Z,23.58
2018-07-09T01:01:04.739Z,23.56
2018-07-09T01:03:34.523Z,23.53
2018-07-09T01:06:04.861Z,23.53
2018-07-09T01:08:40.589Z,23.44
2018-07-09T01:11:23.688Z,23.41
2018-07-09T01:13:52.465Z,23.36
2018-07-09T01:16:21.339Z,23.34
2018-07-09T01:18:49.858Z,23.34
2018-07-09T01:21:18.416Z,23.30
2018-07-09T01:23:47.028Z,23.28
2018-07-09T01:26:15.611Z,23.20
2018-07-09T01:28:44.288Z,23.18
2018-07-09T01:31:13.514Z,23.18
2018-07-09T01:33:42.277Z,23.15
2018-07-09T01:36:10.943Z,23.16
2018-07-09T01:38:39.856Z,23.14
2018-07-09T01:41:08.371Z,23.12
2018-07-09T01:43:48.018Z,23.11
2018-07-09T01:46:17.283Z,23.06
2018-07-09T01:48:45.795Z,22.99
2018-07-09T01:51:14.382Z,22.98
2018-07-09T01:53:43.341Z,22.94
2018-07-09T01:56:12.504Z,22.88
2018-07-09T01:58:41.147Z,22.85
2018-07-09T02:01:09.993Z,22.84
2018-07-09T02:03:38.547Z,22.79
2018-07-09T02:06:07.057Z,22.79
2018-07-09T02:08:41.162Z,22.84
2018-07-09T02:11:10.795Z,22.79
2018-07-09T02:13:40.411Z,22.78
2018-07-09T02:16:09.422Z,22.75
2018-07-09T02:18:38.313Z,22.77
2018-07-09T02:21:08.397Z,22.72
2018-07-09T02:23:37.404Z,22.66
2018-07-09T02:26:11.828Z,22.61
2018-07-09T02:28:40.719Z,22.59
2018-07-09T02:31:16.558Z,22.58
2018-07-09T02:33:45.192Z,22.56
2018-07-09T02:36:14.643Z,22.56
2018-07-09T02:38:43.299Z,22.53
2018-07-09T02:41:12.250Z,22.53
2018-07-09T02:43:40.784Z,22.51
2018-07-09T02:46:09.367Z,22.48
2018-07-09T02:48:37.838Z,22.44
2018-07-09T02:51:06.763Z,22.42
2018-07-09T02:53:35.340Z,22.40
2018-07-09T02:56:04.639Z,22.36
2018-07-09T03:01:08.840Z,22.25
2018-07-09T03:03:37.460Z,22.25
2018-07-09T03:06:06.397Z,22.26
2018-07-09T03:08:40.146Z,22.26
2018-07-09T03:11:08.904Z,22.23
2018-07-09T03:13:41.420Z,22.21
2018-07-09T03:16:09.933Z,22.21
2018-07-09T03:18:44.049Z,22.21
2018-07-09T03:21:12.560Z,22.21
2018-07-09T03:23:43.185Z,22.21
2018-07-09T03:26:12.116Z,22.16
2018-07-09T03:28:40.817Z,22.12
2018-07-09T03:31:09.464Z,22.07
2018-07-09T03:33:38.381Z,22.09
2018-07-09T03:36:07.474Z,22.06
2018-07-09T03:38:36.757Z,22.06
2018-07-09T03:41:05.395Z,22.07
2018-07-09T03:43:33.943Z,22.03
2018-07-09T03:48:40.286Z,21.97
2018-07-09T03:51:08.775Z,21.98
2018-07-09T03:53:37.320Z,21.95
2018-07-09T03:56:06.750Z,21.96
2018-07-09T04:01:14.812Z,21.91
2018-07-09T04:03:46.713Z,21.92
2018-07-09T04:06:15.244Z,21.90
2018-07-09T04:08:50.175Z,21.92
2018-07-09T04:11:19.120Z,21.90
2018-07-09T04:13:47.614Z,21.90
2018-07-09T04:16:16.516Z,21.90
2018-07-09T04:18:45.032Z,21.93
2018-07-09T04:21:13.564Z,21.91
2018-07-09T04:23:42.571Z,21.89
2018-07-09T04:26:11.138Z,21.88
2018-07-09T04:28:39.591Z,21.87
2018-07-09T04:31:08.551Z,21.86
2018-07-09T04:33:37.052Z,21.91
2018-07-09T04:36:06.231Z,21.92
2018-07-09T04:38:35.131Z,21.94
2018-07-09T04:41:03.723Z,21.95
2018-07-09T04:43:33.056Z,21.99
2018-07-09T04:46:04.149Z,21.98
2018-07-09T04:51:00.405Z,22.00
2018-07-09T04:53:29.296Z,22.05
2018-07-09T04:55:59.425Z,22.09
2018-07-09T04:58:28.099Z,22.15
2018-07-09T05:00:56.979Z,22.20
2018-07-09T05:06:06.208Z,22.35
2018-07-09T05:08:34.793Z,22.37
2018-07-09T05:11:03.398Z,22.40
2018-07-09T05:13:32.644Z,22.42
2018-07-09T05:16:01.160Z,22.45
2018-07-09T05:18:30.013Z,22.50
2018-07-09T05:20:59.380Z,22.54
2018-07-09T05:23:27.995Z,22.59
2018-07-09T05:25:56.541Z,22.61
2018-07-09T05:28:25.119Z,22.66
2018-07-09T05:30:54.662Z,22.75
2018-07-09T05:33:23.936Z,22.79
2018-07-09T05:35:52.431Z,22.86
2018-07-09T05:38:21.793Z,22.90
2018-07-09T05:40:51.008Z,22.98
2018-07-09T05:43:19.651Z,23.07
2018-07-09T05:45:51.144Z,23.14
2018-07-09T05:48:20.041Z,23.24
2018-07-09T05:53:19.693Z,23.40
2018-07-09T05:55:48.564Z,23.43
2018-07-09T05:58:18.476Z,23.51
2018-07-09T06:00:47.088Z,23.60
2018-07-09T06:03:16.029Z,23.67
2018-07-09T06:05:44.875Z,23.74
2018-07-09T06:08:13.567Z,23.77
2018-07-09T06:10:48.167Z,23.85
2018-07-09T06:13:16.787Z,23.90
2018-07-09T06:15:45.504Z,23.99
2018-07-09T06:18:14.323Z,24.10
2018-07-09T06:20:43.315Z,24.15
2018-07-09T06:23:11.912Z,24.21
2018-07-09T06:28:23.794Z,24.32
2018-07-09T06:30:52.771Z,24.38
2018-07-09T06:33:21.420Z,24.43
2018-07-09T06:35:50.043Z,24.52
2018-07-09T06:38:18.991Z,24.57
2018-07-09T06:40:47.523Z,24.66
2018-07-09T06:43:16.128Z,24.68
2018-07-09T06:45:48.735Z,24.55
2018-07-09T06:48:17.936Z,24.59
2018-07-09T06:50:46.527Z,24.69
2018-07-09T06:53:20.879Z,24.72
2018-07-09T06:55:49.882Z,24.80
2018-07-09T06:58:20.194Z,24.76
2018-07-09T07:00:49.138Z,24.84
2018-07-09T07:03:17.680Z,24.95
2018-07-09T07:05:46.273Z,25.02
2018-07-09T07:08:19.260Z,25.10
2018-07-09T07:10:48.267Z,25.18
2018-07-09T07:13:22.135Z,25.24
2018-07-09T07:15:51.071Z,25.20
2018-07-09T07:18:30.278Z,25.18
2018-07-09T07:21:00.164Z,25.19
2018-07-09T07:23:28.800Z,25.21
2018-07-09T07:25:57.303Z,25.27
2018-07-09T07:28:26.183Z,25.30
2018-07-09T07:30:54.706Z,25.29
2018-07-09T07:33:23.396Z,25.34
2018-07-09T07:35:52.210Z,25.38
2018-07-09T07:38:21.000Z,25.40
2018-07-09T07:40:50.035Z,25.42
2018-07-09T07:43:20.052Z,25.29
2018-07-09T07:45:48.632Z,25.27
2018-07-09T07:48:17.146Z,25.30
2018-07-09T07:50:49.486Z,25.34
2018-07-09T07:53:17.945Z,25.33
2018-07-09T07:55:46.417Z,25.42
2018-07-09T07:58:15.406Z,25.37
2018-07-09T08:00:43.918Z,25.38
2018-07-09T08:03:12.402Z,25.49
2018-07-09T08:05:44.633Z,25.56
2018-07-09T08:08:13.168Z,25.63
2018-07-09T08:10:42.018Z,25.66
2018-07-09T08:13:27.987Z,25.64
2018-07-09T08:15:40.525Z,25.68
2018-07-09T08:18:09.786Z,25.69
2018-07-09T08:20:44.943Z,25.63
2018-07-09T08:23:13.685Z,25.72
2018-07-09T08:25:42.317Z,25.73
2018-07-09T08:28:11.103Z,25.70
2018-07-09T08:30:39.712Z,25.76
2018-07-09T08:33:08.292Z,25.80
2018-07-09T08:35:37.538Z,25.87
2018-07-09T08:38:10.781Z,25.90
2018-07-09T08:40:39.484Z,25.93
2018-07-09T08:43:13.460Z,25.94
2018-07-09T08:45:42.046Z,25.91
2018-07-09T08:48:11.455Z,25.95
2018-07-09T08:50:40.343Z,25.93
2018-07-09T08:53:09.551Z,25.80
2018-07-09T08:55:38.079Z,25.78
2018-07-09T08:58:07.149Z,25.84
2018-07-09T09:00:35.660Z,25.94
2018-07-09T09:03:04.241Z,25.99
2018-07-09T09:05:33.272Z,26.01
2018-07-09T09:10:27.494Z,26.07
2018-07-09T09:12:57.092Z,26.12
2018-07-09T09:15:25.775Z,26.15
2018-07-09T09:17:54.441Z,26.16
2018-07-09T09:20:23.553Z,26.27
2018-07-09T09:22:52.472Z,26.34
2018-07-09T09:25:26.597Z,26.38
2018-07-09T09:27:55.587Z,26.45
2018-07-09T09:30:24.152Z,26.45
2018-07-09T09:35:32.479Z,26.46
2018-07-09T09:38:01.095Z,26.48
2018-07-09T09:40:29.676Z,26.50
2018-07-09T09:43:01.595Z,26.36
2018-07-09T09:45:30.222Z,26.49
2018-07-09T09:47:58.752Z,26.61
2018-07-09T09:50:27.953Z,26.65
2018-07-09T09:52:56.523Z,26.78
2018-07-09T09:55:25.143Z,26.78
2018-07-09T09:57:54.481Z,26.95
2018-07-09T10:00:55.464Z,27.06
2018-07-09T10:03:25.420Z,27.13
2018-07-09T10:05:53.931Z,27.25
2018-07-09T10:08:22.526Z,27.33
2018-07-09T10:10:51.511Z,27.32
2018-07-09T10:13:21.398Z,27.44
2018-07-09T10:15:50.012Z,27.62
2018-07-09T10:18:22.573Z,27.76
2018-07-09T10:20:51.567Z,27.89
2018-07-09T10:23:21.424Z,27.90
2018-07-09T10:25:50.832Z,28.05
2018-07-09T10:28:23.272Z,27.99
2018-07-09T10:30:55.784Z,28.13
2018-07-09T10:33:28.565Z,28.33
2018-07-09T10:35:57.641Z,28.46
2018-07-09T10:38:26.225Z,28.60
2018-07-09T10:40:54.890Z,28.76
2018-07-09T10:43:23.448Z,29.00
2018-07-09T10:45:52.310Z,29.30
2018-07-09T10:48:24.641Z,29.48
2018-07-09T10:50:53.235Z,29.64
2018-07-09T10:53:22.100Z,29.63
2018-07-09T10:55:50.676Z,29.83
2018-07-09T10:58:19.404Z,29.99
2018-07-09T11:00:48.765Z,30.20
2018-07-09T11:03:17.618Z,30.43
2018-07-09T11:05:46.316Z,30.60
2018-07-09T11:08:15.411Z,30.76
2018-07-09T11:10:46.167Z,30.81
2018-07-09T11:13:14.766Z,31.06
2018-07-09T11:15:43.683Z,31.21
2018-07-09T11:18:12.324Z,30.96
2018-07-09T11:20:41.087Z,31.17
2018-07-09T11:23:10.112Z,31.41
2018-07-09T11:25:43.344Z,31.37
2018-07-09T11:28:11.990Z,31.33
2018-07-09T11:30:41.564Z,31.30
2018-07-09T11:33:11.279Z,31.56
2018-07-09T11:35:39.866Z,31.88
2018-07-09T11:38:15.458Z,32.11
2018-07-09T11:40:44.761Z,32.27
2018-07-09T11:43:14.663Z,32.59
2018-07-09T11:45:43.667Z,32.94
2018-07-09T11:48:15.439Z,32.95
2018-07-09T11:50:44.180Z,32.98
2018-07-09T11:53:12.818Z,33.45
2018-07-09T11:55:41.754Z,33.76
2018-07-09T11:58:10.738Z,34.02
2018-07-09T12:00:39.314Z,34.06
2018-07-09T12:03:08.038Z,34.22
2018-07-09T12:05:36.890Z,34.27
2018-07-09T12:08:06.530Z,34.33
2018-07-09T12:10:35.084Z,34.56
2018-07-09T12:13:04.054Z,34.69
2018-07-09T12:15:32.732Z,34.75
2018-07-09T12:18:03.156Z,34.81
2018-07-09T12:20:36.252Z,34.51
2018-07-09T12:23:09.011Z,34.94
2018-07-09T12:28:19.102Z,35.21
2018-07-09T12:30:50.447Z,35.58
2018-07-09T12:33:18.984Z,35.66
2018-07-09T12:35:47.776Z,36.02
2018-07-09T12:38:24.176Z,36.40
2018-07-09T12:40:53.006Z,36.83
2018-07-09T12:43:23.736Z,36.99
2018-07-09T12:45:57.443Z,37.07
2018-07-09T12:48:29.713Z,37.20
2018-07-09T12:50:58.276Z,37.62
2018-07-09T12:53:27.436Z,37.94
2018-07-09T12:55:56.785Z,38.10
2018-07-09T12:58:25.424Z,38.37
2018-07-09T13:00:59.853Z,38.93
2018-07-09T13:03:28.975Z,38.89
2018-07-09T13:05:57.553Z,39.01
2018-07-09T13:08:26.103Z,39.01
2018-07-09T13:10:55.568Z,38.90
2018-07-09T13:13:24.084Z,38.80
2018-07-09T13:15:52.639Z,39.34
2018-07-09T13:18:21.413Z,40.13
2018-07-09T13:20:50.599Z,39.66
2018-07-09T13:23:19.119Z,40.35
2018-07-09T13:25:47.980Z,40.99
2018-07-09T13:28:16.511Z,41.24
2018-07-09T13:30:45.049Z,41.46
2018-07-09T13:33:14.248Z,42.06
2018-07-09T13:35:42.849Z,42.84
2018-07-09T13:38:14.779Z,42.48
2018-07-09T13:40:44.113Z,43.05
2018-07-09T13:43:12.699Z,42.83
2018-07-09T13:45:41.209Z,43.48
2018-07-09T13:48:24.835Z,44.28
2018-07-09T13:50:53.435Z,45.06
2018-07-09T13:53:22.323Z,45.23
2018-07-09T13:55:53.090Z,45.33
2018-07-09T13:58:21.747Z,45.48
2018-07-09T14:00:56.615Z,45.79
2018-07-09T14:03:25.239Z,46.50
2018-07-09T14:05:53.821Z,46.18
2018-07-09T14:08:23.262Z,47.03
2018-07-09T14:10:51.851Z,47.91
2018-07-09T14:13:20.416Z,48.47
2018-07-09T14:15:49.294Z,48.50
2018-07-09T14:18:17.853Z,47.32
2018-07-09T14:20:46.633Z,46.56
2018-07-09T14:23:19.640Z,45.58
2018-07-09T14:25:48.232Z,44.74
2018-07-09T14:28:18.956Z,44.81
2018-07-09T14:30:47.803Z,45.00
2018-07-09T14:33:16.552Z,43.84
2018-07-09T14:35:45.132Z,42.95
2018-07-09T14:38:14.056Z,42.09
2018-07-09T14:40:43.684Z,41.33
2018-07-09T14:43:12.271Z,40.81
2018-07-09T14:45:41.193Z,40.61
2018-07-09T14:48:11.677Z,40.17
2018-07-09T14:50:40.254Z,40.44
2018-07-09T14:53:11.391Z,41.66
2018-07-09T14:55:39.900Z,42.03
2018-07-09T14:58:13.777Z,40.53
2018-07-09T15:00:42.685Z,39.28
2018-07-09T15:03:11.295Z,39.42
2018-07-09T15:05:39.775Z,40.07
2018-07-09T15:08:08.885Z,41.89
2018-07-09T15:10:48.344Z,43.89
2018-07-09T15:13:18.255Z,45.57
2018-07-09T15:15:47.143Z,46.82
2018-07-09T15:18:20.564Z,47.98
2018-07-09T15:20:49.651Z,48.37
2018-07-09T15:23:20.745Z,49.23
2018-07-09T15:25:49.460Z,49.80
2018-07-09T15:28:26.173Z,49.28
2018-07-09T15:30:54.878Z,49.92
2018-07-09T15:33:24.558Z,49.83
2018-07-09T15:35:53.800Z,49.45
2018-07-09T15:38:22.395Z,48.45
2018-07-09T15:40:50.934Z,48.08
2018-07-09T15:43:34.567Z,47.72
2018-07-09T15:46:03.792Z,46.44
2018-07-09T15:48:33.693Z,45.01
2018-07-09T15:51:02.636Z,43.75
2018-07-09T15:53:31.884Z,42.99
2018-07-09T15:56:00.607Z,42.39
2018-07-09T15:58:29.203Z,42.00
2018-07-09T16:00:58.495Z,41.20
2018-07-09T16:03:27.046Z,39.98
2018-07-09T16:05:57.109Z,39.35
2018-07-09T16:08:26.266Z,39.24
2018-07-09T16:10:54.823Z,38.99
2018-07-09T16:13:24.661Z,38.81
2018-07-09T16:18:24.820Z,38.02
2018-07-09T16:20:53.394Z,37.58
2018-07-09T16:25:57.417Z,36.90
2018-07-09T16:28:26.023Z,36.33
2018-07-09T16:31:09.317Z,35.81
2018-07-09T16:33:38.800Z,35.51
2018-07-09T16:36:11.753Z,35.45
2018-07-09T16:38:40.660Z,35.37
2018-07-09T16:41:09.378Z,35.02
2018-07-09T16:43:38.360Z,34.71
2018-07-09T16:46:06.906Z,34.64
2018-07-09T16:48:35.608Z,34.50
2018-07-09T16:51:04.574Z,34.77
2018-07-09T16:53:33.490Z,34.63
2018-07-09T16:56:03.033Z,34.73
2018-07-09T16:58:32.120Z,34.86
2018-07-09T17:01:00.712Z,34.80
2018-07-09T17:03:29.265Z,34.76
2018-07-09T17:05:58.315Z,34.82
2018-07-09T17:08:30.040Z,34.54
2018-07-09T17:10:58.874Z,34.56
2018-07-09T17:13:27.775Z,34.44
2018-07-09T17:15:56.516Z,34.26
2018-07-09T17:18:28.372Z,34.08
2018-07-09T17:20:59.533Z,33.96
2018-07-09T17:23:32.431Z,33.92
2018-07-09T17:26:01.301Z,33.85
2018-07-09T17:28:30.349Z,33.64
2018-07-09T17:31:00.331Z,33.51
2018-07-09T17:33:29.019Z,33.38
2018-07-09T17:35:58.896Z,33.15
2018-07-09T17:38:27.485Z,32.94
2018-07-09T17:40:56.225Z,32.80
2018-07-09T17:43:26.170Z,32.66
2018-07-09T17:45:54.957Z,32.51
2018-07-09T17:48:23.515Z,32.37
2018-07-09T17:50:52.443Z,32.24
2018-07-09T17:53:21.730Z,32.11
2018-07-09T17:55:50.315Z,31.93
2018-07-09T17:58:19.847Z,31.78
2018-07-09T18:00:48.651Z,31.63
2018-07-09T18:03:17.210Z,31.53
2018-07-09T18:08:42.354Z,31.28
2018-07-09T18:11:11.173Z,31.18
2018-07-09T18:13:39.793Z,31.03
2018-07-09T18:16:19.431Z,30.86
2018-07-09T18:18:50.735Z,30.71
2018-07-09T18:21:19.349Z,30.63
2018-07-09T18:23:47.935Z,30.55
2018-07-09T18:26:17.636Z,30.51
2018-07-09T18:28:46.707Z,30.46
2018-07-09T18:31:22.385Z,30.45
2018-07-09T18:33:50.858Z,30.37
2018-07-09T18:36:22.522Z,30.35
2018-07-09T18:38:53.153Z,30.35
2018-07-09T18:41:21.717Z,30.24
2018-07-09T18:43:50.322Z,30.19
2018-07-09T18:46:22.875Z,30.11
2018-07-09T18:48:51.559Z,30.05
2018-07-09T18:51:30.756Z,29.99
2018-07-09T18:53:59.814Z,29.91
2018-07-09T18:56:28.354Z,29.87
2018-07-09T18:58:56.922Z,29.77
2018-07-09T19:01:25.921Z,29.60
2018-07-09T19:04:05.294Z,29.53
2018-07-09T19:06:45.992Z,29.49
2018-07-09T19:09:14.540Z,29.38
2018-07-09T19:11:58.619Z,29.31
2018-07-09T19:14:36.613Z,29.16
2018-07-09T19:17:50.215Z,29.11
2018-07-09T19:20:30.011Z,29.04
2018-07-09T19:22:58.667Z,28.94
2018-07-09T19:25:26.006Z,28.86
2018-07-09T19:27:53.745Z,28.79
2018-07-09T19:30:21.307Z,28.70
2018-07-09T19:32:55.035Z,28.64
2018-07-09T19:35:22.333Z,28.58
2018-07-09T19:37:50.016Z,28.54
2018-07-09T19:40:16.996Z,28.46
2018-07-09T19:42:44.605Z,28.39
2018-07-09T19:45:12.641Z,28.34
2018-07-09T19:50:15.713Z,28.31
2018-07-09T19:52:43.032Z,28.27
2018-07-09T19:55:10.317Z,28.23
2018-07-09T19:57:37.989Z,28.20
2018-07-09T20:00:05.250Z,28.12
2018-07-09T20:02:32.598Z,28.12
2018-07-09T20:05:00.178Z,28.08
2018-07-09T20:07:27.429Z,28.01
2018-07-09T20:10:00.049Z,27.99
2018-07-09T20:14:47.119Z,27.91
2018-07-09T20:17:23.461Z,27.74
2018-07-09T20:20:02.513Z,27.72
2018-07-09T20:22:30.011Z,27.64
2018-07-09T20:24:57.658Z,27.62
2018-07-09T20:27:24.985Z,27.56
2018-07-09T20:29:52.328Z,27.52
2018-07-09T20:32:19.986Z,27.53
2018-07-09T20:34:47.299Z,27.52
2018-07-09T20:37:14.947Z,27.54
2018-07-09T20:39:43.107Z,27.51
2018-07-09T20:42:12.741Z,27.54
2018-07-09T20:44:39.990Z,27.53
2018-07-09T20:47:10.740Z,27.49
2018-07-09T20:49:38.121Z,27.44
2018-07-09T20:52:05.544Z,27.40
2018-07-09T20:54:33.170Z,27.35
2018-07-09T20:59:07.598Z,27.31
2018-07-09T21:01:35.081Z,27.19
2018-07-09T21:04:07.616Z,27.05
2018-07-09T21:06:34.858Z,26.97
2018-07-09T21:09:02.406Z,26.91
2018-07-09T21:11:33.189Z,26.88
2018-07-09T21:14:01.837Z,26.80
2018-07-09T21:16:29.519Z,26.76
2018-07-09T21:18:57.115Z,26.72
2018-07-09T21:21:28.590Z,26.64
2018-07-09T21:24:03.735Z,26.59
2018-07-09T21:26:31.061Z,26.55
2018-07-09T21:28:58.333Z,26.51
2018-07-09T21:31:26.071Z,26.48
2018-07-09T21:33:55.109Z,26.44
2018-07-09T21:36:22.621Z,26.40
2018-07-09T21:38:50.215Z,26.38
2018-07-09T21:41:17.492Z,26.34
2018-07-09T21:43:44.797Z,26.31
2018-07-09T21:46:12.383Z,26.26
2018-07-09T21:48:39.715Z,26.24
2018-07-09T21:51:06.944Z,26.24
2018-07-09T21:53:34.855Z,26.21
2018-07-09T21:56:02.744Z,26.14
2018-07-09T21:58:34.726Z,26.11
2018-07-09T22:01:02.308Z,26.10
2018-07-09T22:03:33.217Z,26.10
2018-07-09T22:06:00.479Z,26.06
2018-07-09T22:08:28.096Z,26.02
2018-07-09T22:10:55.802Z,26.04
2018-07-09T22:13:23.120Z,26.05
2018-07-09T22:15:50.655Z,26.04
2018-07-09T22:18:18.024Z,26.01
2018-07-09T22:20:45.324Z,25.98
2018-07-09T22:23:13.024Z,25.90
2018-07-09T22:25:43.404Z,25.90
2018-07-09T22:28:10.688Z,25.86
2018-07-09T22:30:45.966Z,25.88
2018-07-09T22:33:15.452Z,25.85
2018-07-09T22:35:45.406Z,25.84
2018-07-09T22:38:14.369Z,25.81
2018-07-09T22:40:43.443Z,25.78
2018-07-09T22:43:28.608Z,25.76
2018-07-09T22:45:57.611Z,25.72
2018-07-09T22:48:26.143Z,25.71
2018-07-09T22:50:54.805Z,25.68
2018-07-09T22:53:23.952Z,25.64
2018-07-09T22:56:07.743Z,25.62
2018-07-09T22:58:37.065Z,25.57
2018-07-09T23:01:06.067Z,25.54
2018-07-09T23:03:34.687Z,25.53
2018-07-09T23:06:04.277Z,25.48
2018-07-09T23:08:38.803Z,25.47
2018-07-09T23:13:38.656Z,25.44
2018-07-09T23:17:21.977Z,25.38
2018-07-09T23:22:28.693Z,25.29
2018-07-09T23:24:56.040Z,25.19
2018-07-09T23:27:30.592Z,25.15
2018-07-09T23:29:58.513Z,25.13
2018-07-09T23:32:25.755Z,25.14
2018-07-09T23:34:53.010Z,25.13
2018-07-09T23:37:20.252Z,25.11
2018-07-09T23:39:47.816Z,25.07
2018-07-09T23:42:15.173Z,25.03
2018-07-09T23:44:42.323Z,25.03
2018-07-09T23:47:11.612Z,25.06
2018-07-09T23:49:38.878Z,25.05
2018-07-09T23:52:06.180Z,25.01
2018-07-09T23:54:34.790Z,25.05
2018-07-09T23:57:17.252Z,25.03
2018-07-09T23:59:58.415Z,25.03
